Cookies

¿Aceptas nuestras cookies?

Aceptar
VAM | Vabird-VBD

Virtual Vabird! Aerolínea Virtual de habla hispana, desde 2011




 INFORMACIÓN METAR y TAF
METAR FOR GCFV
ADDS - METARS form results

(1321 UTC 24 October 2021)
Data provider http://aviationweather.gov/metar/data/
 
METAR text: GCFV 241300Z 05010KT 020V080 9999 FEW035 24/16 Q1019
Conditions at: GCFV (FUERTEVENTURA AR, ES) observed 1300 UTC 24 October 2021
Temperature: 24.0°C (75°F)
Dewpoint: 16.0°C (61°F) [RH = 61%]
Pressure (altimeter): 30.09 inches Hg (1019.0 mb)
Winds: from the NE (50 degrees) at 12 MPH (10 knots; 5.1 m/s)
Visibility: 6 or more miles (10+ km)
Ceiling: at least 12,000 feet AGL
Clouds: few clouds at 3500 feet AGL
Weather: no significant weather observed at this time

METAR text: GCFV 241230Z 05010KT 9999 FEW035 25/15 Q1019
Conditions at: GCFV (FUERTEVENTURA AR, ES) observed 1230 UTC 24 October 2021
Temperature: 25.0°C (77°F)
Dewpoint: 15.0°C (59°F) [RH = 54%]
Pressure (altimeter): 30.09 inches Hg (1019.0 mb)
Winds: from the NE (50 degrees) at 12 MPH (10 knots; 5.1 m/s)
Visibility: 6 or more miles (10+ km)
Ceiling: at least 12,000 feet AGL
Clouds: few clouds at 3500 feet AGL
Weather: no significant weather observed at this time

Forecast for: AMD
Text: TAF AMD GCFV 241146Z 2411/2509 04009KT 9999 FEW035 TX25/2414Z TN21/2506Z
Forecast period: 1100 to 2100 UTC 24 October 2021
Forecast type: FROM: standard forecast or significant change
Winds: from the NE (40 degrees) at 10 MPH (9 knots; 4.6 m/s)
Visibility: 6 or more miles (10+ km)
Ceiling: at least 12,000 feet AGL
Clouds: few clouds at 3500 feet AGL
Weather: no significant weather forecast for this period
Text: BECMG 2421/2423 34010KT
Forecast period: 2100 UTC 24 October 2021 to 0900 UTC 25 October 2021
Forecast type: BECOMING: Conditions expected to become as follows by 2300 UTC 24 October 2021
Winds: from the NNW (340 degrees) at 12 MPH (10 knots; 5.1 m/s)
Visibility: 6 or more miles (10+ km)
Ceiling: at least 12,000 feet AGL
Clouds: few clouds at 3500 feet AGL
Weather: no significant weather forecast for this period

 MAPA DE AEROPUERTO

 INFORMACIÓN DE PISTA